Time;durP1;ratioP1;P1;durP2;ratioP2;P2;SDS_P1;SDS_P2;PMS_P1;PMS_P2;Temp;Humidity;BMP_temperature;BMP_pressure;BME280_temperature;BME280_humidity;BME280_pressure;Samples;Min_cycle;Max_cycle;Signal;HPM_P1;HPM_P2
2021/01/09 00:00:12;;;;;;;20.75;12.90;;;3.20;68.70;;;;;;5096398;28;20406;-43
2021/01/09 00:02:39;;;;;;;24.38;12.35;;;3.20;68.70;;;;;;5097301;28;20047;-45
2021/01/09 00:05:05;;;;;;;23.05;13.50;;;3.20;68.70;;;;;;5095706;28;20039;-45
2021/01/09 00:07:32;;;;;;;19.92;12.15;;;3.20;68.80;;;;;;5097014;28;20024;-43
2021/01/09 00:10:03;;;;;;;21.30;13.13;;;3.20;68.80;;;;;;5096374;28;20674;-44
2021/01/09 00:12:28;;;;;;;21.30;12.63;;;3.20;68.80;;;;;;5096399;28;20027;-44
2021/01/09 00:14:54;;;;;;;20.38;12.23;;;3.20;68.70;;;;;;5096545;28;20462;-43
2021/01/09 00:17:20;;;;;;;20.77;13.52;;;3.20;68.70;;;;;;5096968;28;20056;-44
2021/01/09 00:19:45;;;;;;;20.52;12.52;;;3.10;68.50;;;;;;5096034;28;20051;-43
2021/01/09 00:22:11;;;;;;;23.15;12.77;;;3.10;68.50;;;;;;5097101;28;20020;-42
2021/01/09 00:24:38;;;;;;;21.88;13.35;;;3.00;68.60;;;;;;5096413;28;20023;-43
2021/01/09 00:27:11;;;;;;;20.60;13.32;;;3.00;68.60;;;;;;5096197;28;20116;-44
2021/01/09 00:29:41;;;;;;;21.73;13.50;;;2.90;68.70;;;;;;5096210;28;20500;-43
2021/01/09 00:32:07;;;;;;;21.10;12.50;;;2.90;68.70;;;;;;5096463;28;20058;-43
2021/01/09 00:34:33;;;;;;;21.73;12.85;;;2.80;68.70;;;;;;5095621;28;20048;-43
2021/01/09 00:36:59;;;;;;;19.63;12.60;;;2.70;68.80;;;;;;5096502;28;20100;-43
2021/01/09 00:39:24;;;;;;;21.15;13.43;;;2.70;68.90;;;;;;5095744;28;20399;-44
2021/01/09 00:41:50;;;;;;;22.92;12.70;;;2.60;69.10;;;;;;5096095;28;20107;-45
2021/01/09 00:44:16;;;;;;;20.67;12.75;;;2.60;69.20;;;;;;5095428;28;20575;-45
2021/01/09 00:46:42;;;;;;;22.33;12.75;;;2.60;69.20;;;;;;5096703;28;20071;-43
2021/01/09 00:49:08;;;;;;;23.95;13.27;;;2.50;69.20;;;;;;5095486;28;20036;-43
2021/01/09 00:51:33;;;;;;;20.65;13.15;;;2.50;69.30;;;;;;5096921;28;20085;-43
2021/01/09 00:53:59;;;;;;;19.98;12.90;;;2.50;69.40;;;;;;5095423;28;20058;-44
2021/01/09 00:56:25;;;;;;;25.17;14.00;;;2.40;69.50;;;;;;5096474;28;20119;-43
2021/01/09 00:58:50;;;;;;;21.95;13.38;;;2.40;69.60;;;;;;5096169;28;20023;-44
2021/01/09 01:01:16;;;;;;;21.58;12.60;;;2.30;69.70;;;;;;5095837;28;20042;-43
2021/01/09 01:03:42;;;;;;;23.85;14.15;;;2.30;69.80;;;;;;5095887;28;20066;-43
2021/01/09 01:06:12;;;;;;;21.08;13.13;;;2.30;70.00;;;;;;5096128;28;20391;-43
2021/01/09 01:08:38;;;;;;;20.98;13.45;;;2.30;70.10;;;;;;5095287;28;20279;-44
2021/01/09 01:11:08;;;;;;;22.40;13.35;;;2.20;70.20;;;;;;5095913;28;20385;-43
2021/01/09 01:13:34;;;;;;;24.00;13.63;;;2.20;70.20;;;;;;5095289;28;20047;-43
2021/01/09 01:16:00;;;;;;;22.08;13.73;;;2.20;70.20;;;;;;5096099;28;20074;-43
2021/01/09 01:18:25;;;;;;;20.88;13.50;;;2.20;70.40;;;;;;5095406;28;20027;-44
2021/01/09 01:20:51;;;;;;;21.95;13.38;;;2.20;70.60;;;;;;5095066;28;20044;-44
2021/01/09 01:23:19;;;;;;;20.40;12.38;;;2.20;70.70;;;;;;5095106;28;20361;-43
2021/01/09 01:25:45;;;;;;;20.85;12.90;;;2.20;70.70;;;;;;5095389;28;20036;-42
2021/01/09 01:28:11;;;;;;;18.75;12.30;;;2.30;70.70;;;;;;5095539;28;20035;-43
2021/01/09 01:30:36;;;;;;;18.85;12.57;;;2.20;70.80;;;;;;5095595;28;20032;-43
2021/01/09 01:33:03;;;;;;;23.23;13.50;;;2.30;70.80;;;;;;5095542;28;20390;-44
2021/01/09 01:35:28;;;;;;;20.83;13.07;;;2.30;70.90;;;;;;5095720;28;20403;-44
2021/01/09 01:37:54;;;;;;;23.27;13.02;;;2.30;70.80;;;;;;5095495;28;20322;-44
2021/01/09 01:40:23;;;;;;;21.40;12.70;;;2.30;70.90;;;;;;5095515;28;20020;-44
2021/01/09 01:42:49;;;;;;;21.48;13.32;;;2.30;70.70;;;;;;5095598;28;20027;-44
2021/01/09 01:45:15;;;;;;;18.52;11.80;;;2.40;70.80;;;;;;5094839;28;20417;-43
2021/01/09 01:47:43;;;;;;;21.02;12.63;;;2.40;70.90;;;;;;5095401;28;20330;-48
2021/01/09 01:50:10;;;;;;;25.25;13.25;;;2.40;70.80;;;;;;5094686;28;20122;-42
2021/01/09 01:52:35;;;;;;;22.55;13.77;;;2.40;70.80;;;;;;5095817;28;20421;-43
2021/01/09 01:55:02;;;;;;;21.98;13.57;;;2.40;70.80;;;;;;5094668;28;20035;-43
2021/01/09 01:57:28;;;;;;;18.60;12.48;;;2.40;70.70;;;;;;5095362;28;20563;-43
2021/01/09 01:59:54;;;;;;;22.38;13.38;;;2.50;70.80;;;;;;5094631;28;20036;-43
2021/01/09 02:02:20;;;;;;;26.05;12.73;;;2.50;70.80;;;;;;5095617;28;20032;-45
2021/01/09 02:04:55;;;;;;;19.55;12.75;;;2.50;71.00;;;;;;5094894;28;20137;-42
2021/01/09 02:07:26;;;;;;;21.30;13.07;;;2.50;70.80;;;;;;5095229;28;20024;-43
2021/01/09 02:09:54;;;;;;;25.60;14.75;;;2.60;70.70;;;;;;5094732;28;20032;-43
2021/01/09 02:12:41;;;;;;;21.45;13.60;;;2.60;70.40;;;;;;5094831;28;20125;-43
2021/01/09 02:15:08;;;;;;;21.35;12.95;;;2.60;70.60;;;;;;5094956;28;20031;-43
2021/01/09 02:17:36;;;;;;;22.83;14.07;;;2.60;70.70;;;;;;5095648;28;20027;-43
2021/01/09 02:20:03;;;;;;;21.75;13.80;;;2.60;70.70;;;;;;5094246;28;20425;-43
2021/01/09 02:22:39;;;;;;;22.02;13.80;;;2.70;70.70;;;;;;5095344;28;20039;-42
2021/01/09 02:25:05;;;;;;;23.00;14.13;;;2.70;70.50;;;;;;5094858;28;20035;-43
2021/01/09 02:27:31;;;;;;;22.17;14.15;;;2.70;70.40;;;;;;5095090;28;20429;-43
2021/01/09 02:30:07;;;;;;;25.52;14.90;;;2.70;70.40;;;;;;5097099;28;20082;-44
2021/01/09 02:32:55;;;;;;;22.80;14.10;;;2.70;70.50;;;;;;5098630;28;20066;-44
2021/01/09 02:35:22;;;;;;;23.70;14.82;;;2.70;70.40;;;;;;5098652;28;20081;-43
2021/01/09 02:37:49;;;;;;;27.48;15.70;;;2.80;70.50;;;;;;5098602;28;20133;-43
2021/01/09 02:40:16;;;;;;;24.45;14.70;;;2.70;70.50;;;;;;5097978;28;20063;-43
2021/01/09 02:42:42;;;;;;;24.23;15.15;;;2.80;70.60;;;;;;5099066;28;20536;-42
2021/01/09 02:45:08;;;;;;;28.27;15.60;;;2.80;70.50;;;;;;5098136;28;20059;-43
2021/01/09 02:47:34;;;;;;;24.85;15.50;;;2.80;70.50;;;;;;5098627;28;20101;-44
2021/01/09 02:50:00;;;;;;;27.52;16.17;;;2.90;70.60;;;;;;5097798;28;20040;-43
2021/01/09 02:52:25;;;;;;;26.45;15.57;;;2.90;70.50;;;;;;5098880;28;20031;-44
2021/01/09 02:54:51;;;;;;;25.05;15.60;;;2.90;70.50;;;;;;5097150;28;20081;-44
2021/01/09 02:57:17;;;;;;;25.52;15.00;;;2.90;70.60;;;;;;5098622;28;20097;-44
2021/01/09 02:59:42;;;;;;;24.95;15.48;;;2.90;70.60;;;;;;5097687;28;20421;-43
2021/01/09 03:02:08;;;;;;;26.45;15.88;;;2.90;70.50;;;;;;5097992;28;20039;-44
2021/01/09 03:04:34;;;;;;;24.83;15.20;;;3.00;70.50;;;;;;5098192;28;20035;-44
2021/01/09 03:06:59;;;;;;;24.90;15.00;;;3.00;70.60;;;;;;5098073;28;20029;-45
2021/01/09 03:09:26;;;;;;;25.15;15.10;;;3.00;70.60;;;;;;5097316;28;20130;-43
2021/01/09 03:11:52;;;;;;;27.85;16.58;;;3.00;70.60;;;;;;5098101;28;20063;-43
2021/01/09 03:14:18;;;;;;;24.45;15.95;;;3.00;70.40;;;;;;5097377;28;20388;-44
2021/01/09 03:16:44;;;;;;;28.08;15.63;;;3.10;70.40;;;;;;5098099;28;20102;-43
2021/01/09 03:19:09;;;;;;;28.92;16.52;;;3.10;70.30;;;;;;5097137;28;20345;-44
2021/01/09 03:21:35;;;;;;;23.58;14.52;;;3.10;70.30;;;;;;5098729;28;20063;-43
2021/01/09 03:24:01;;;;;;;26.52;15.20;;;3.10;70.40;;;;;;5097479;28;20028;-45
2021/01/09 03:26:26;;;;;;;28.73;16.40;;;3.10;70.30;;;;;;5098391;28;20464;-44
2021/01/09 03:28:52;;;;;;;26.20;15.95;;;3.10;70.20;;;;;;5097267;28;20544;-44
2021/01/09 03:31:18;;;;;;;27.73;16.08;;;3.10;70.10;;;;;;5097486;28;20097;-43
2021/01/09 03:33:43;;;;;;;27.77;16.38;;;3.10;70.20;;;;;;5097932;28;20038;-45
2021/01/09 03:36:09;;;;;;;26.55;15.75;;;3.10;70.20;;;;;;5097777;28;20093;-43
2021/01/09 03:38:35;;;;;;;27.67;15.13;;;3.10;70.20;;;;;;5097564;28;20396;-43
2021/01/09 03:41:01;;;;;;;24.33;15.88;;;3.00;70.20;;;;;;5097327;28;20055;-43
2021/01/09 03:43:26;;;;;;;29.33;16.30;;;3.00;70.30;;;;;;5097620;28;20084;-44
2021/01/09 03:45:52;;;;;;;29.10;17.00;;;3.00;70.40;;;;;;5097103;28;20321;-43
2021/01/09 03:48:18;;;;;;;24.33;15.68;;;3.00;70.40;;;;;;5096936;28;20031;-44
2021/01/09 03:50:43;;;;;;;29.45;15.82;;;3.00;70.20;;;;;;5097085;28;20044;-43
2021/01/09 03:53:09;;;;;;;22.40;14.75;;;3.00;70.40;;;;;;5096426;28;20346;-44
2021/01/09 03:55:35;;;;;;;30.83;15.88;;;3.00;70.40;;;;;;5096856;28;20024;-43
2021/01/09 03:58:00;;;;;;;26.30;15.90;;;3.00;70.30;;;;;;5097271;28;20353;-44
2021/01/09 04:00:26;;;;;;;29.92;17.70;;;3.00;70.40;;;;;;5096064;28;20454;-44
2021/01/09 04:02:53;;;;;;;27.02;16.20;;;3.00;70.40;;;;;;5097207;28;20024;-44
2021/01/09 04:05:19;;;;;;;26.67;16.45;;;3.00;70.60;;;;;;5096776;28;20341;-43
2021/01/09 04:07:44;;;;;;;30.63;17.45;;;3.00;70.70;;;;;;5096477;28;20027;-46
2021/01/09 04:10:10;;;;;;;30.73;17.88;;;3.00;70.60;;;;;;5096474;28;20032;-43
2021/01/09 04:12:36;;;;;;;28.25;16.45;;;2.90;70.60;;;;;;5096799;28;20099;-43
2021/01/09 04:15:03;;;;;;;28.58;17.33;;;2.90;70.60;;;;;;5096146;28;20344;-43
2021/01/09 04:17:29;;;;;;;28.92;17.25;;;2.90;70.70;;;;;;5096661;28;20131;-44
2021/01/09 04:19:54;;;;;;;29.35;16.83;;;2.90;70.70;;;;;;5095960;28;20135;-42
2021/01/09 04:22:20;;;;;;;27.13;14.93;;;2.90;70.70;;;;;;5096659;28;20032;-43
2021/01/09 04:24:46;;;;;;;32.78;16.88;;;2.90;70.60;;;;;;5095831;28;20031;-43
2021/01/09 04:27:11;;;;;;;27.73;17.13;;;2.90;70.70;;;;;;5096674;28;20069;-44
2021/01/09 04:29:37;;;;;;;23.55;15.73;;;2.80;70.60;;;;;;5095413;28;20043;-43
2021/01/09 04:32:03;;;;;;;27.98;17.30;;;2.80;70.70;;;;;;5096583;28;20066;-45
2021/01/09 04:34:29;;;;;;;32.92;18.50;;;2.80;70.50;;;;;;5095945;28;20063;-43
2021/01/09 04:36:54;;;;;;;27.88;16.33;;;2.70;70.60;;;;;;5096185;28;20215;-45
2021/01/09 04:39:20;;;;;;;26.08;15.70;;;2.70;70.70;;;;;;5096236;28;20172;-44
2021/01/09 04:41:47;;;;;;;28.65;17.30;;;2.70;70.90;;;;;;5096874;28;20080;-43
2021/01/09 04:44:13;;;;;;;31.33;17.92;;;2.70;71.00;;;;;;5095583;28;20068;-45
2021/01/09 04:46:54;;;;;;;34.03;17.75;;;2.70;71.00;;;;;;5096536;28;20114;-43
2021/01/09 04:49:28;;;;;;;28.17;17.13;;;2.70;71.10;;;;;;5095583;28;20040;-43
2021/01/09 04:51:55;;;;;;;30.30;16.70;;;2.70;71.20;;;;;;5095700;28;20037;-44
2021/01/09 04:54:23;;;;;;;29.98;17.80;;;2.70;71.30;;;;;;5095229;28;20287;-44
2021/01/09 04:56:54;;;;;;;30.60;18.60;;;2.80;71.40;;;;;;5096038;28;20334;-44
2021/01/09 04:59:21;;;;;;;31.63;17.90;;;2.70;71.40;;;;;;5095468;28;20059;-43
2021/01/09 05:01:48;;;;;;;30.52;17.58;;;2.70;71.30;;;;;;5096178;28;20067;-45
2021/01/09 05:04:16;;;;;;;30.70;17.88;;;2.70;71.40;;;;;;5095640;28;20032;-45
2021/01/09 05:06:43;;;;;;;29.65;17.38;;;2.70;71.40;;;;;;5096287;28;20020;-44
2021/01/09 05:09:12;;;;;;;32.80;19.65;;;2.70;71.50;;;;;;5095380;28;20058;-44
2021/01/09 05:11:40;;;;;;;33.17;19.80;;;2.70;71.60;;;;;;5096248;28;20437;-44
2021/01/09 05:14:07;;;;;;;29.98;17.25;;;2.70;71.60;;;;;;5095076;28;20059;-46
2021/01/09 05:16:34;;;;;;;32.40;17.10;;;2.70;71.60;;;;;;5096063;28;20016;-45
2021/01/09 05:19:01;;;;;;;32.42;18.40;;;2.80;71.80;;;;;;5095637;28;20059;-44
2021/01/09 05:21:28;;;;;;;35.45;20.88;;;2.70;71.80;;;;;;5095786;28;20059;-45
2021/01/09 05:23:58;;;;;;;36.08;19.13;;;2.80;71.90;;;;;;5095508;28;20031;-44
2021/01/09 05:26:24;;;;;;;31.05;19.30;;;2.80;71.90;;;;;;5096323;28;20067;-45
2021/01/09 05:28:53;;;;;;;33.58;19.25;;;2.80;71.90;;;;;;5095096;28;20111;-46
2021/01/09 05:31:21;;;;;;;32.65;18.77;;;2.80;72.00;;;;;;5095754;28;20039;-44
2021/01/09 05:33:47;;;;;;;37.17;19.15;;;2.80;71.90;;;;;;5095313;28;20043;-45
2021/01/09 05:36:14;;;;;;;31.30;18.63;;;2.80;72.00;;;;;;5095223;28;20065;-45
2021/01/09 05:38:42;;;;;;;35.42;19.55;;;2.90;71.90;;;;;;5095600;28;20059;-45
2021/01/09 05:41:13;;;;;;;34.92;19.42;;;2.90;72.00;;;;;;5095569;28;20024;-45
2021/01/09 05:43:39;;;;;;;;;;;2.90;72.00;;;;;;5095603;28;20024;-43
2021/01/09 05:46:06;;;;;;;36.30;19.20;;;2.90;71.80;;;;;;5095200;28;20229;-43
2021/01/09 05:48:33;;;;;;;33.08;18.42;;;2.90;71.90;;;;;;5094809;28;20463;-45
2021/01/09 05:51:03;;;;;;;35.75;20.17;;;2.90;72.00;;;;;;5095078;28;20119;-44
2021/01/09 05:53:46;;;;;;;34.58;19.55;;;2.90;72.10;;;;;;5094979;28;20110;-44
2021/01/09 05:56:14;;;;;;;48.25;21.15;;;2.90;72.10;;;;;;5095733;28;20402;-45
2021/01/09 05:58:40;;;;;;;33.58;18.95;;;2.90;72.30;;;;;;5094678;28;20028;-44
2021/01/09 06:01:07;;;;;;;43.63;19.98;;;2.90;72.20;;;;;;5095469;28;20031;-46
2021/01/09 06:03:58;;;;;;;29.33;18.92;;;2.90;72.20;;;;;;5095827;28;20337;-49
2021/01/09 06:06:32;;;;;;;31.35;19.17;;;2.90;72.10;;;;;;5099645;28;20089;-46
2021/01/09 06:09:00;;;;;;;32.92;19.85;;;2.90;72.00;;;;;;5088366;28;20040;-44
2021/01/09 06:11:50;;;;;;;33.80;19.90;;;2.90;72.20;;;;;;5079736;28;20024;-44
2021/01/09 06:14:16;;;;;;;33.97;21.02;;;2.90;72.20;;;;;;5077676;28;20047;-43
2021/01/09 06:16:43;;;;;;;33.28;19.05;;;2.90;72.30;;;;;;5079347;28;20024;-44
2021/01/09 06:19:09;;;;;;;36.78;21.52;;;2.90;72.40;;;;;;5079265;28;20033;-43
2021/01/09 06:21:36;;;;;;;32.35;19.65;;;2.90;72.50;;;;;;5078375;28;20549;-43
2021/01/09 06:24:04;;;;;;;33.28;20.42;;;2.90;72.50;;;;;;5078236;28;20033;-43
2021/01/09 06:26:31;;;;;;;35.90;19.50;;;2.90;72.60;;;;;;5079021;28;20378;-43
2021/01/09 06:28:58;;;;;;;34.58;19.10;;;3.00;72.70;;;;;;5091418;28;20040;-44
2021/01/09 06:31:26;;;;;;;34.45;21.42;;;2.90;72.60;;;;;;5098946;28;20449;-45
2021/01/09 06:33:54;;;;;;;36.83;20.88;;;3.00;72.60;;;;;;5098839;28;20032;-44
2021/01/09 06:36:21;;;;;;;36.22;20.58;;;3.00;72.60;;;;;;5098230;28;20020;-45
2021/01/09 06:38:49;;;;;;;39.38;21.95;;;3.00;72.60;;;;;;5098501;28;20078;-44
2021/01/09 06:41:17;;;;;;;34.78;20.23;;;3.00;72.40;;;;;;5099025;28;20344;-44
2021/01/09 06:43:46;;;;;;;36.10;20.50;;;3.00;72.60;;;;;;5097898;28;20028;-43
2021/01/09 06:46:24;;;;;;;41.25;22.13;;;3.00;72.60;;;;;;5097974;28;20028;-44
2021/01/09 06:48:49;;;;;;;34.00;20.38;;;3.00;72.60;;;;;;5097970;28;20066;-44
2021/01/09 06:51:34;;;;;;;38.00;21.15;;;3.00;72.70;;;;;;5098028;28;20047;-43
2021/01/09 06:54:16;;;;;;;32.47;19.63;;;3.00;72.70;;;;;;5098027;28;20024;-44
2021/01/09 06:56:46;;;;;;;34.67;21.50;;;3.00;72.80;;;;;;5098124;28;20027;-43
2021/01/09 06:59:31;;;;;;;37.60;20.48;;;3.00;72.90;;;;;;5096226;28;20173;-43
2021/01/09 07:02:26;;;;;;;35.80;21.42;;;3.00;73.00;;;;;;5096830;28;20404;-45
2021/01/09 07:04:56;;;;;;;37.58;21.25;;;3.10;73.00;;;;;;5094681;28;20020;-43
2021/01/09 07:07:52;;;;;;;36.63;20.42;;;3.10;72.90;;;;;;5096866;28;20016;-43
2021/01/09 07:10:28;;;;;;;35.67;19.70;;;3.10;73.00;;;;;;5095904;28;20434;-42
2021/01/09 07:13:07;;;;;;;41.45;22.25;;;3.10;73.10;;;;;;5095581;28;20103;-42
2021/01/09 07:15:36;;;;;;;36.42;20.73;;;3.10;73.20;;;;;;5085392;28;20050;-44
2021/01/09 07:18:06;;;;;;;33.67;20.85;;;3.10;73.20;;;;;;5096713;28;20024;-44
2021/01/09 07:20:41;;;;;;;34.65;20.83;;;3.10;73.10;;;;;;5097354;28;20349;-47
2021/01/09 07:23:09;;;;;;;35.95;19.45;;;3.20;73.10;;;;;;5081685;28;20032;-46
2021/01/09 07:25:43;;;;;;;39.10;22.55;;;3.20;73.20;;;;;;5097576;28;20052;-45
2021/01/09 07:28:10;;;;;;;41.88;23.70;;;3.20;73.10;;;;;;5096925;28;20334;-44
2021/01/09 07:30:37;;;;;;;39.50;22.40;;;3.20;73.10;;;;;;5096952;28;20036;-45
2021/01/09 07:33:09;;;;;;;38.45;22.60;;;3.20;73.00;;;;;;5097344;28;20050;-43
2021/01/09 07:35:34;;;;;;;39.55;23.33;;;3.20;73.00;;;;;;5096578;28;20028;-43
2021/01/09 07:38:05;;;;;;;39.45;23.55;;;3.20;73.10;;;;;;5095556;28;20074;-44
2021/01/09 07:40:42;;;;;;;43.22;24.08;;;3.20;73.10;;;;;;5094842;28;20024;-45
2021/01/09 07:43:34;;;;;;;41.05;21.95;;;3.20;73.10;;;;;;5095385;28;20085;-44
2021/01/09 07:46:01;;;;;;;40.05;22.75;;;3.20;73.20;;;;;;5096393;28;20031;-44
2021/01/09 07:48:33;;;;;;;42.88;24.08;;;3.20;73.20;;;;;;5096011;28;20036;-44
2021/01/09 07:50:59;;;;;;;42.08;23.33;;;3.30;73.30;;;;;;5096602;28;20342;-43
2021/01/09 07:53:28;;;;;;;41.42;24.00;;;3.30;73.30;;;;;;5095573;28;20027;-45
2021/01/09 07:55:54;;;;;;;39.83;23.13;;;3.30;73.40;;;;;;5096565;28;20024;-43
2021/01/09 07:58:42;;;;;;;45.92;24.75;;;3.30;73.40;;;;;;5096064;28;20024;-44
2021/01/09 08:01:08;;;;;;;42.05;24.08;;;3.30;73.40;;;;;;5097158;28;20028;-43
2021/01/09 08:03:34;;;;;;;38.08;22.67;;;3.30;73.30;;;;;;5095305;28;20042;-44
2021/01/09 08:06:00;;;;;;;43.83;25.13;;;3.40;73.30;;;;;;5094259;28;20049;-44
2021/01/09 08:08:26;;;;;;;42.47;24.38;;;3.40;73.40;;;;;;5095065;28;20071;-47
2021/01/09 08:10:52;;;;;;;41.97;24.05;;;3.40;73.40;;;;;;5095404;28;20124;-43
2021/01/09 08:13:21;;;;;;;42.72;25.67;;;3.50;73.50;;;;;;5094526;28;20070;-45
2021/01/09 08:15:47;;;;;;;42.40;24.27;;;3.50;73.40;;;;;;5095492;28;20020;-45
2021/01/09 08:18:13;;;;;;;44.05;24.48;;;3.50;73.30;;;;;;5096202;28;20024;-44
2021/01/09 08:20:39;;;;;;;43.75;24.98;;;3.60;73.30;;;;;;5096043;28;20479;-43
2021/01/09 08:23:06;;;;;;;43.55;25.45;;;3.60;73.20;;;;;;5096743;28;20032;-43
2021/01/09 08:25:39;;;;;;;40.00;24.13;;;3.60;73.20;;;;;;5096246;28;20036;-43
2021/01/09 08:28:06;;;;;;;42.53;24.63;;;3.60;73.00;;;;;;5095797;28;20111;-41
2021/01/09 08:30:34;;;;;;;46.33;25.65;;;3.60;73.30;;;;;;5096223;28;20425;-42
2021/01/09 08:33:06;;;;;;;39.55;24.20;;;3.70;73.30;;;;;;5096468;28;20055;-42
2021/01/09 08:35:33;;;;;;;44.55;25.42;;;3.70;73.20;;;;;;5095351;28;20028;-42
2021/01/09 08:37:59;;;;;;;46.55;25.20;;;3.80;73.10;;;;;;5096200;28;20131;-42
2021/01/09 08:40:25;;;;;;;42.97;24.27;;;3.80;72.80;;;;;;5095600;28;20048;-43
2021/01/09 08:43:02;;;;;;;37.65;22.38;;;3.80;72.80;;;;;;5095479;28;20441;-44
2021/01/09 08:45:50;;;;;;;38.95;23.70;;;3.90;72.90;;;;;;5095098;28;20034;-49
2021/01/09 08:48:17;;;;;;;39.20;23.67;;;3.90;72.80;;;;;;5096211;28;20099;-48
2021/01/09 08:50:59;;;;;;;40.70;24.20;;;4.00;72.90;;;;;;5095833;28;20039;-46
2021/01/09 08:53:27;;;;;;;37.33;22.73;;;4.00;72.90;;;;;;5096082;28;20023;-45
2021/01/09 08:56:01;;;;;;;38.60;22.55;;;4.10;72.60;;;;;;5095297;28;20107;-44
2021/01/09 08:58:29;;;;;;;39.78;22.80;;;4.10;72.30;;;;;;5096090;28;20500;-45
2021/01/09 09:00:56;;;;;;;41.35;22.48;;;4.20;72.10;;;;;;5095881;28;20024;-45
2021/01/09 09:03:23;;;;;;;36.72;22.92;;;4.20;71.90;;;;;;5096068;28;20338;-46
2021/01/09 09:05:51;;;;;;;37.60;22.02;;;4.20;71.90;;;;;;5095744;28;20031;-45
2021/01/09 09:08:18;;;;;;;36.35;21.88;;;4.20;71.50;;;;;;5095822;28;20028;-47
2021/01/09 09:10:46;;;;;;;39.75;23.23;;;4.20;71.30;;;;;;5095670;28;20093;-45
2021/01/09 09:13:19;;;;;;;40.95;24.48;;;4.30;71.30;;;;;;5095515;28;20028;-46
2021/01/09 09:15:45;;;;;;;45.95;24.48;;;4.30;71.30;;;;;;5095477;28;20353;-44
2021/01/09 09:18:11;;;;;;;39.88;23.70;;;4.30;71.50;;;;;;5095399;28;20032;-44
2021/01/09 09:20:39;;;;;;;36.35;22.88;;;4.30;71.30;;;;;;5095610;28;20056;-48
2021/01/09 09:23:24;;;;;;;40.78;23.38;;;4.40;71.30;;;;;;5095350;28;20064;-44
2021/01/09 09:26:29;;;;;;;43.03;24.10;;;4.40;71.10;;;;;;5095341;28;20045;-44
2021/01/09 09:28:56;;;;;;;40.53;23.30;;;4.40;71.30;;;;;;5074191;28;20040;-40
2021/01/09 09:31:30;;;;;;;39.20;22.15;;;4.40;71.30;;;;;;5095488;28;20024;-41
2021/01/09 09:34:12;;;;;;;39.13;22.42;;;4.50;71.10;;;;;;5094712;28;20422;-40
2021/01/09 09:36:50;;;;;;;38.08;22.88;;;4.50;71.00;;;;;;5096175;28;20104;-40
2021/01/09 09:39:18;;;;;;;40.40;23.35;;;4.50;70.70;;;;;;5098657;28;20433;-41
2021/01/09 09:42:03;;;;;;;40.95;23.63;;;4.50;70.40;;;;;;5099819;28;20035;-41
2021/01/09 09:44:43;;;;;;;52.70;29.83;;;4.50;70.40;;;;;;5098348;28;20028;-40
2021/01/09 09:47:10;;;;;;;38.15;23.00;;;4.40;70.20;;;;;;5097262;28;20417;-42
2021/01/09 09:49:37;;;;;;;39.20;23.67;;;4.40;70.30;;;;;;5082974;28;20036;-41
2021/01/09 09:52:17;;;;;;;49.75;24.60;;;4.40;70.40;;;;;;5078393;28;20020;-42
2021/01/09 09:54:43;;;;;;;51.33;28.75;;;4.40;70.40;;;;;;5097569;28;20082;-42
2021/01/09 09:57:22;;;;;;;43.90;25.55;;;4.40;70.50;;;;;;5104206;28;20047;-43
2021/01/09 10:00:03;;;;;;;38.35;23.52;;;4.40;70.50;;;;;;5098659;28;20030;-41
2021/01/09 10:02:28;;;;;;;44.80;24.38;;;4.50;70.60;;;;;;5116536;28;20126;-41
2021/01/09 10:04:54;;;;;;;36.05;23.10;;;4.50;70.60;;;;;;5097904;28;20112;-44
2021/01/09 10:07:21;;;;;;;37.20;22.65;;;4.50;70.50;;;;;;5098178;28;20031;-48
2021/01/09 10:09:47;;;;;;;42.60;24.30;;;4.50;70.20;;;;;;5098266;28;20040;-47
2021/01/09 10:12:13;;;;;;;42.92;24.55;;;4.60;70.50;;;;;;5098956;28;20349;-42
2021/01/09 10:14:39;;;;;;;37.50;24.08;;;4.60;70.40;;;;;;5098832;28;20056;-42
2021/01/09 10:17:04;;;;;;;42.88;23.73;;;4.60;70.40;;;;;;5098261;28;20376;-46
2021/01/09 10:19:30;;;;;;;42.22;24.65;;;4.60;70.50;;;;;;5097682;28;20106;-44
2021/01/09 10:21:56;;;;;;;47.65;25.20;;;4.70;70.30;;;;;;5098884;28;20036;-45
2021/01/09 10:24:21;;;;;;;40.53;24.50;;;4.70;70.30;;;;;;5097953;28;20252;-45
2021/01/09 10:26:47;;;;;;;40.65;22.65;;;4.70;70.10;;;;;;5098645;28;20039;-46
2021/01/09 10:29:14;;;;;;;40.88;24.20;;;4.80;70.10;;;;;;5098006;28;20036;-45
2021/01/09 10:31:40;;;;;;;42.42;25.25;;;4.80;70.00;;;;;;5099125;28;20055;-44
2021/01/09 10:34:08;;;;;;;42.53;25.15;;;4.80;69.90;;;;;;5098048;28;20043;-47
2021/01/09 10:36:36;;;;;;;41.85;23.92;;;4.80;69.90;;;;;;5099319;28;20106;-46
2021/01/09 10:39:04;;;;;;;45.33;24.88;;;4.80;69.70;;;;;;5097967;28;20077;-44
2021/01/09 10:41:29;;;;;;;44.92;24.88;;;4.90;69.70;;;;;;5098944;28;20020;-45
2021/01/09 10:43:55;;;;;;;43.55;24.70;;;4.90;69.70;;;;;;5098372;28;20031;-50
2021/01/09 10:46:23;;;;;;;40.83;24.17;;;4.90;69.60;;;;;;5098674;28;20020;-45
2021/01/09 10:48:50;;;;;;;42.33;25.05;;;4.90;69.60;;;;;;5097426;28;20031;-45
2021/01/09 10:51:17;;;;;;;44.50;26.30;;;4.90;69.50;;;;;;5097355;28;20028;-46
2021/01/09 10:53:43;;;;;;;42.03;25.55;;;4.90;69.70;;;;;;5098008;28;20028;-45
2021/01/09 10:56:09;;;;;;;38.53;23.13;;;5.00;69.70;;;;;;5097548;28;20030;-45
2021/01/09 10:58:35;;;;;;;37.28;23.83;;;5.00;69.50;;;;;;5097601;28;20032;-47
2021/01/09 11:01:01;;;;;;;39.65;23.02;;;5.10;69.20;;;;;;5098246;28;20349;-44
2021/01/09 11:03:26;;;;;;;43.67;26.13;;;5.00;69.00;;;;;;5097365;28;20035;-45
2021/01/09 11:05:52;;;;;;;42.22;24.02;;;5.00;69.10;;;;;;5098190;28;20031;-44
2021/01/09 11:08:18;;;;;;;38.97;24.13;;;5.00;69.40;;;;;;5098227;28;20032;-45
2021/01/09 11:10:43;;;;;;;41.40;24.58;;;5.10;69.50;;;;;;5097428;28;20032;-44
2021/01/09 11:13:09;;;;;;;42.80;23.88;;;5.00;69.40;;;;;;5097522;28;20028;-45
2021/01/09 11:15:35;;;;;;;44.33;23.45;;;5.00;69.40;;;;;;5096975;28;20024;-43
2021/01/09 11:18:01;;;;;;;40.53;23.52;;;5.10;69.10;;;;;;5097587;28;20032;-42
2021/01/09 11:20:27;;;;;;;37.15;22.52;;;5.10;69.00;;;;;;5097175;28;20048;-41
2021/01/09 11:22:52;;;;;;;37.60;23.65;;;5.10;68.90;;;;;;5097914;28;20058;-41
2021/01/09 11:25:18;;;;;;;40.47;23.13;;;5.10;69.00;;;;;;5096967;28;20042;-40
2021/01/09 11:27:44;;;;;;;35.70;21.73;;;5.10;69.00;;;;;;5097884;28;20066;-41
2021/01/09 11:30:10;;;;;;;36.30;22.52;;;5.10;68.60;;;;;;5097125;28;20429;-40
2021/01/09 11:32:36;;;;;;;39.03;21.77;;;5.10;68.50;;;;;;5097577;28;20046;-41
2021/01/09 11:35:02;;;;;;;35.08;21.50;;;5.10;68.10;;;;;;5096827;28;20092;-41
2021/01/09 11:37:28;;;;;;;37.72;22.10;;;5.10;67.80;;;;;;5097182;28;20482;-42
2021/01/09 11:39:54;;;;;;;44.00;22.50;;;5.10;67.80;;;;;;5096755;28;20028;-41
2021/01/09 11:42:23;;;;;;;35.22;20.85;;;5.00;67.50;;;;;;5096975;28;20020;-43
2021/01/09 11:44:49;;;;;;;37.47;21.95;;;4.90;67.70;;;;;;5096758;28;20420;-43
2021/01/09 11:47:15;;;;;;;34.03;20.58;;;4.80;67.80;;;;;;5096737;28;20099;-42
2021/01/09 11:49:41;;;;;;;42.05;22.48;;;4.80;68.00;;;;;;5096245;28;20047;-43
2021/01/09 11:52:07;;;;;;;37.88;22.52;;;4.80;68.30;;;;;;5097786;28;20147;-42
2021/01/09 11:54:33;;;;;;;40.92;23.27;;;4.80;68.40;;;;;;5095845;28;20651;-41
2021/01/09 11:57:00;;;;;;;39.67;23.15;;;4.80;68.20;;;;;;5097219;28;20081;-41
2021/01/09 11:59:26;;;;;;;36.47;22.60;;;4.80;68.30;;;;;;5096414;28;20028;-42
2021/01/09 12:01:52;;;;;;;43.10;23.95;;;4.80;68.00;;;;;;5095751;28;20341;-41
2021/01/09 12:04:17;;;;;;;38.67;22.60;;;4.80;68.00;;;;;;5096639;28;20258;-43
2021/01/09 12:06:43;;;;;;;35.30;22.17;;;4.80;68.20;;;;;;5097462;28;20434;-43
2021/01/09 12:09:09;;;;;;;37.13;22.58;;;4.80;67.80;;;;;;5095531;28;20047;-44
2021/01/09 12:11:36;;;;;;;37.15;21.45;;;4.70;67.70;;;;;;5096775;28;20126;-42
2021/01/09 12:14:02;;;;;;;41.72;21.95;;;4.80;68.00;;;;;;5095817;28;20110;-42
2021/01/09 12:16:33;;;;;;;38.78;22.67;;;4.70;67.80;;;;;;5094735;28;20035;-44
2021/01/09 12:18:59;;;;;;;40.10;22.98;;;4.70;67.70;;;;;;5094793;28;20024;-42
2021/01/09 12:21:28;;;;;;;40.88;23.90;;;4.70;68.00;;;;;;5094837;28;20420;-43
2021/01/09 12:24:01;;;;;;;44.70;25.57;;;4.70;68.00;;;;;;5070811;28;20033;-48
2021/01/09 12:26:27;;;;;;;40.58;24.25;;;4.70;68.20;;;;;;5074300;28;20051;-46
2021/01/09 12:28:53;;;;;;;40.92;24.50;;;4.70;68.40;;;;;;5075362;28;20024;-48
2021/01/09 12:31:19;;;;;;;39.63;24.27;;;4.80;68.50;;;;;;5074418;28;20033;-41
2021/01/09 12:33:45;;;;;;;62.05;34.03;;;4.80;68.40;;;;;;5074109;28;20038;-45
2021/01/09 12:36:20;;;;;;;36.88;22.98;;;4.80;68.30;;;;;;5093024;28;20487;-43
2021/01/09 12:38:46;;;;;;;38.20;23.33;;;4.80;68.00;;;;;;5093899;28;20026;-43
2021/01/09 12:41:11;;;;;;;36.88;23.48;;;4.80;67.80;;;;;;5094401;28;20036;-42
2021/01/09 12:43:39;;;;;;;37.63;22.90;;;4.80;67.70;;;;;;5094825;28;20020;-43